Time;durP1;ratioP1;P1;durP2;ratioP2;P2;SDS_P1;SDS_P2;PMS_P1;PMS_P2;Temp;Humidity;BMP_temperature;BMP_pressure;BME280_temperature;BME280_humidity;BME280_pressure;Samples;Min_cycle;Max_cycle;Signal;HPM_P1;HPM_P2
2021/09/23 00:01:55;;;;;;;2.47;2.27;;;14.20;97.10;;;;;;5033164;28;20226;-71
2021/09/23 00:04:32;;;;;;;5.23;3.20;;;14.20;97.10;;;;;;5033512;28;20451;-70
2021/09/23 00:06:59;;;;;;;4.60;2.57;;;14.20;97.10;;;;;;5016999;28;20710;-71
2021/09/23 00:09:24;;;;;;;4.50;3.47;;;14.10;97.10;;;;;;5034468;28;20477;-71
2021/09/23 00:11:50;;;;;;;2.40;2.20;;;14.10;97.00;;;;;;5043948;28;20445;-71
2021/09/23 00:14:16;;;;;;;3.30;3.00;;;14.10;97.30;;;;;;5052242;28;20242;-71
2021/09/23 00:16:42;;;;;;;2.90;2.70;;;14.10;97.00;;;;;;5022979;28;20706;-70
2021/09/23 00:19:08;;;;;;;4.10;2.30;;;14.00;97.10;;;;;;5016900;28;20222;-71
2021/09/23 00:21:34;;;;;;;3.90;2.80;;;13.90;97.20;;;;;;5032568;28;20461;-71
2021/09/23 00:24:00;;;;;;;3.70;2.40;;;13.90;97.50;;;;;;5019161;28;20462;-71
2021/09/23 00:26:25;;;;;;;6.00;2.60;;;13.90;97.10;;;;;;5014056;28;1036041;-71
2021/09/23 00:28:51;;;;;;;3.30;2.47;;;13.90;97.10;;;;;;5048515;28;20223;-71
2021/09/23 00:31:16;;;;;;;2.00;1.90;;;13.90;97.10;;;;;;5052571;28;20219;-71
2021/09/23 00:33:42;;;;;;;3.27;2.90;;;13.90;97.20;;;;;;5053155;28;20223;-71
2021/09/23 00:36:08;;;;;;;2.77;2.50;;;13.80;97.10;;;;;;5070351;28;20223;-71
2021/09/23 00:38:34;;;;;;;4.00;2.90;;;13.70;97.10;;;;;;5033611;28;20703;-71
2021/09/23 00:40:59;;;;;;;3.40;3.10;;;13.70;97.20;;;;;;5017674;28;20219;-71
2021/09/23 00:43:25;;;;;;;3.87;3.00;;;13.70;97.30;;;;;;5044341;28;20766;-71
2021/09/23 00:45:51;;;;;;;3.00;2.70;;;13.70;97.20;;;;;;5039098;28;20216;-70
2021/09/23 00:48:16;;;;;;;3.40;2.60;;;13.70;97.20;;;;;;5017320;28;20228;-70
2021/09/23 00:50:43;;;;;;;5.17;3.30;;;13.70;97.20;;;;;;5031741;28;20732;-70
2021/09/23 00:53:12;;;;;;;3.03;2.70;;;13.50;97.40;;;;;;5037024;28;20634;-70
2021/09/23 00:55:39;;;;;;;2.70;2.50;;;13.40;97.50;;;;;;5032671;28;20505;-71
2021/09/23 00:58:05;;;;;;;2.87;2.37;;;13.40;97.80;;;;;;5032751;28;20534;-71
2021/09/23 01:00:36;;;;;;;2.87;2.40;;;13.40;97.80;;;;;;5049201;28;20445;-71
2021/09/23 01:03:10;;;;;;;2.87;2.67;;;13.50;97.70;;;;;;5034374;28;20813;-71
2021/09/23 01:05:37;;;;;;;3.10;2.60;;;13.50;97.60;;;;;;5069752;28;20459;-72
2021/09/23 01:08:04;;;;;;;3.63;2.93;;;13.50;97.50;;;;;;5036447;28;20437;-71
2021/09/23 01:10:29;;;;;;;3.27;2.90;;;13.50;97.40;;;;;;5036255;28;20797;-70
2021/09/23 01:12:55;;;;;;;2.90;2.70;;;13.50;97.40;;;;;;5032316;28;20216;-71
2021/09/23 01:15:22;;;;;;;2.70;2.50;;;13.50;97.40;;;;;;5030164;28;20698;-71
2021/09/23 01:17:49;;;;;;;3.00;2.40;;;13.50;97.40;;;;;;5047480;28;20449;-71
2021/09/23 01:20:17;;;;;;;2.40;2.20;;;13.50;97.30;;;;;;5035640;28;20813;-70
2021/09/23 01:22:44;;;;;;;3.50;2.70;;;13.40;97.10;;;;;;5066706;28;20450;-71
2021/09/23 01:25:19;;;;;;;3.47;2.50;;;13.40;97.10;;;;;;5021132;28;20459;-70
2021/09/23 01:27:46;;;;;;;3.50;2.70;;;13.40;97.20;;;;;;5016327;28;20469;-71
2021/09/23 01:30:17;;;;;;;3.17;2.87;;;13.30;97.10;;;;;;5017112;28;20533;-71
2021/09/23 01:32:46;;;;;;;4.57;2.87;;;13.30;97.20;;;;;;5016279;28;20443;-71
2021/09/23 01:35:14;;;;;;;3.17;2.80;;;13.30;97.20;;;;;;5035198;28;20458;-69
2021/09/23 01:37:40;;;;;;;3.93;2.90;;;13.30;97.10;;;;;;5035984;28;20461;-71
2021/09/23 01:40:09;;;;;;;2.40;2.20;;;13.30;97.20;;;;;;5052997;28;20460;-71
2021/09/23 01:42:35;;;;;;;3.27;2.97;;;13.30;97.20;;;;;;5051863;28;20446;-71
2021/09/23 01:45:02;;;;;;;2.20;2.00;;;13.20;97.20;;;;;;5052662;28;20453;-71
2021/09/23 01:47:33;;;;;;;5.20;2.83;;;13.20;97.20;;;;;;5052263;28;20453;-71
2021/09/23 01:49:59;;;;;;;2.43;2.23;;;13.20;97.30;;;;;;5051769;28;20460;-71
2021/09/23 01:52:29;;;;;;;4.13;2.50;;;13.20;97.30;;;;;;5035096;28;20270;-71
2021/09/23 01:55:11;;;;;;;4.40;2.60;;;13.20;97.40;;;;;;5021290;28;20996;-70
2021/09/23 01:57:37;;;;;;;3.17;2.87;;;13.10;97.30;;;;;;5035442;28;20461;-70
2021/09/23 02:00:05;;;;;;;3.03;2.20;;;13.10;97.30;;;;;;5069223;28;20525;-71
2021/09/23 02:02:38;;;;;;;3.30;2.70;;;13.00;97.30;;;;;;5068651;28;20702;-71
2021/09/23 02:05:07;;;;;;;3.37;3.07;;;13.00;97.30;;;;;;5032578;28;20473;-71
2021/09/23 02:07:33;;;;;;;2.93;2.67;;;13.00;97.30;;;;;;5023153;28;20856;-71
2021/09/23 02:10:05;;;;;;;3.30;2.60;;;13.00;97.30;;;;;;5019959;28;20457;-71
2021/09/23 02:12:31;;;;;;;3.73;2.03;;;13.00;97.30;;;;;;5039715;28;20454;-71
2021/09/23 02:14:58;;;;;;;2.43;2.23;;;12.90;97.30;;;;;;5025074;28;20506;-71
2021/09/23 02:17:24;;;;;;;2.83;2.20;;;12.90;97.40;;;;;;5035484;28;20234;-71
2021/09/23 02:19:57;;;;;;;2.70;2.30;;;12.90;97.30;;;;;;5051582;28;20984;-71
2021/09/23 02:22:24;;;;;;;2.30;2.10;;;12.90;97.30;;;;;;5035042;28;20536;-69
2021/09/23 02:24:54;;;;;;;2.60;2.40;;;12.90;97.30;;;;;;5035814;28;20445;-71
2021/09/23 02:27:20;;;;;;;2.67;2.43;;;12.90;97.30;;;;;;5035441;28;20481;-70
2021/09/23 02:29:46;;;;;;;2.83;2.23;;;12.90;97.30;;;;;;5051634;28;20453;-71
2021/09/23 02:32:12;;;;;;;4.93;2.57;;;12.80;97.30;;;;;;5035438;28;20452;-70
2021/09/23 02:34:38;;;;;;;2.23;2.03;;;12.70;97.20;;;;;;5034292;28;20219;-71
2021/09/23 02:37:05;;;;;;;3.10;2.63;;;12.70;97.30;;;;;;5035324;28;20226;-71
2021/09/23 02:39:31;;;;;;;2.83;2.63;;;12.70;97.30;;;;;;5069995;28;20457;-71
2021/09/23 02:41:57;;;;;;;3.90;2.90;;;12.70;97.30;;;;;;5035145;28;20472;-71
2021/09/23 02:44:23;;;;;;;2.70;2.50;;;12.70;97.30;;;;;;5051344;28;20499;-71
2021/09/23 02:46:49;;;;;;;3.43;3.13;;;12.70;97.20;;;;;;5034737;28;20214;-71
2021/09/23 02:49:14;;;;;;;3.63;2.77;;;12.50;97.70;;;;;;5035439;28;20235;-71
2021/09/23 02:51:40;;;;;;;3.30;2.70;;;12.50;97.40;;;;;;5042422;28;20207;-70
2021/09/23 02:54:06;;;;;;;3.77;2.90;;;12.50;97.40;;;;;;5051905;28;20517;-71
2021/09/23 02:56:32;;;;;;;2.90;2.53;;;12.50;97.40;;;;;;5034746;28;20230;-70
2021/09/23 02:58:58;;;;;;;3.00;2.53;;;12.50;97.40;;;;;;5034521;28;20207;-70
2021/09/23 03:01:23;;;;;;;2.53;2.03;;;12.50;97.30;;;;;;5039535;28;20212;-70
2021/09/23 03:03:49;;;;;;;4.93;3.40;;;12.50;97.30;;;;;;5029620;28;20216;-71
2021/09/23 03:06:15;;;;;;;4.23;3.53;;;12.50;97.30;;;;;;5043497;28;20709;-69
2021/09/23 03:08:41;;;;;;;4.30;3.33;;;12.50;97.40;;;;;;5034857;28;20610;-70
2021/09/23 03:11:08;;;;;;;3.53;3.07;;;12.50;97.40;;;;;;5028524;28;20449;-71
2021/09/23 03:13:34;;;;;;;4.03;3.43;;;12.50;97.50;;;;;;5062772;28;20451;-71
2021/09/23 03:16:00;;;;;;;5.00;2.93;;;12.40;97.40;;;;;;5031353;28;20452;-73
2021/09/23 03:18:26;;;;;;;4.13;3.33;;;12.40;97.40;;;;;;5034730;28;20707;-71
2021/09/23 03:20:52;;;;;;;3.00;2.63;;;12.40;97.50;;;;;;5053770;28;20207;-70
2021/09/23 03:23:18;;;;;;;3.93;3.47;;;12.40;97.50;;;;;;5022343;28;20212;-71
2021/09/23 03:25:44;;;;;;;3.20;2.90;;;12.40;97.70;;;;;;5035050;28;20453;-71
2021/09/23 03:28:11;;;;;;;4.10;3.27;;;12.30;97.80;;;;;;5027755;28;20445;-71
2021/09/23 03:30:37;;;;;;;4.77;3.60;;;12.30;97.60;;;;;;5060209;28;20450;-71
2021/09/23 03:33:04;;;;;;;4.03;3.07;;;12.30;97.60;;;;;;5056989;28;20447;-71
2021/09/23 03:35:31;;;;;;;6.27;2.87;;;12.30;97.60;;;;;;5051421;28;20843;-70
2021/09/23 03:37:57;;;;;;;5.70;3.23;;;12.30;97.50;;;;;;5067359;28;20511;-71
2021/09/23 03:40:24;;;;;;;3.37;2.90;;;12.30;97.50;;;;;;5073142;28;20468;-71
2021/09/23 03:42:50;;;;;;;3.53;3.20;;;12.20;97.50;;;;;;5054234;28;20499;-71
2021/09/23 03:45:15;;;;;;;6.20;3.40;;;12.20;97.50;;;;;;5038656;28;20449;-70
2021/09/23 03:47:41;;;;;;;2.43;2.23;;;12.20;97.50;;;;;;5071114;28;20231;-71
2021/09/23 03:50:08;;;;;;;2.80;2.60;;;12.20;97.60;;;;;;5051291;28;20266;-71
2021/09/23 03:52:34;;;;;;;4.60;3.53;;;12.20;97.60;;;;;;5033421;28;20212;-72
2021/09/23 03:54:59;;;;;;;2.83;2.63;;;12.20;97.60;;;;;;5018400;28;20462;-70
2021/09/23 03:57:27;;;;;;;3.73;3.00;;;12.20;97.50;;;;;;5069301;28;20749;-71
2021/09/23 03:59:53;;;;;;;3.60;3.10;;;12.10;97.40;;;;;;5054774;28;20219;-70
2021/09/23 04:02:18;;;;;;;3.40;2.63;;;12.10;97.50;;;;;;5054421;28;20462;-71
2021/09/23 04:04:44;;;;;;;4.63;3.13;;;12.10;97.50;;;;;;5053903;28;20226;-71
2021/09/23 04:07:10;;;;;;;3.10;2.80;;;12.10;97.50;;;;;;5036460;28;20221;-71
2021/09/23 04:09:38;;;;;;;3.37;3.07;;;12.00;97.40;;;;;;5047249;28;20450;-71
2021/09/23 04:12:04;;;;;;;5.13;3.80;;;12.00;97.40;;;;;;5038292;28;20970;-71
2021/09/23 04:14:29;;;;;;;3.10;2.63;;;12.00;97.50;;;;;;5045279;28;20469;-70
2021/09/23 04:16:56;;;;;;;3.50;3.17;;;12.00;97.50;;;;;;5037982;28;20468;-70
2021/09/23 04:19:22;;;;;;;4.23;2.93;;;12.00;97.40;;;;;;5038166;28;20674;-70
2021/09/23 04:21:48;;;;;;;2.63;2.43;;;12.00;97.40;;;;;;5036191;28;20956;-70
2021/09/23 04:24:15;;;;;;;4.70;2.93;;;11.90;97.40;;;;;;5045696;28;20458;-70
2021/09/23 04:26:42;;;;;;;3.63;2.93;;;11.90;97.30;;;;;;5036566;28;20461;-70
2021/09/23 04:29:08;;;;;;;4.60;2.63;;;11.90;97.30;;;;;;5040100;28;20461;-71
2021/09/23 04:31:35;;;;;;;3.23;2.93;;;11.90;97.30;;;;;;5051911;28;20456;-71
2021/09/23 04:34:01;;;;;;;3.70;2.60;;;11.80;97.30;;;;;;5055331;28;20454;-71
2021/09/23 04:36:26;;;;;;;4.90;2.90;;;11.80;97.20;;;;;;5056989;28;20229;-71
2021/09/23 04:38:52;;;;;;;5.30;2.70;;;11.80;97.30;;;;;;5057462;28;20210;-71
2021/09/23 04:41:18;;;;;;;4.47;3.00;;;11.70;97.10;;;;;;5050932;28;20215;-70
2021/09/23 04:43:46;;;;;;;2.60;2.40;;;11.70;97.20;;;;;;5036368;28;20219;-70
2021/09/23 04:46:16;;;;;;;3.23;2.93;;;11.60;97.30;;;;;;5053454;28;20211;-71
2021/09/23 04:48:42;;;;;;;5.03;2.77;;;11.60;97.50;;;;;;5053629;28;20448;-70
2021/09/23 04:51:09;;;;;;;2.80;2.27;;;11.60;97.40;;;;;;5051024;28;20449;-71
2021/09/23 04:53:34;;;;;;;2.73;2.37;;;11.60;97.40;;;;;;5045092;28;20445;-71
2021/09/23 04:56:03;;;;;;;7.10;3.40;;;11.60;97.30;;;;;;5037066;28;20242;-70
2021/09/23 04:58:30;;;;;;;3.37;2.73;;;11.60;97.30;;;;;;5035533;28;20445;-70
2021/09/23 05:00:56;;;;;;;2.80;2.60;;;11.60;97.30;;;;;;5052656;28;20434;-71
2021/09/23 05:03:22;;;;;;;2.70;2.40;;;11.60;97.30;;;;;;5035848;28;20215;-71
2021/09/23 05:05:47;;;;;;;4.10;3.23;;;11.60;97.50;;;;;;5052630;28;20234;-71
2021/09/23 05:08:13;;;;;;;3.97;2.80;;;11.50;97.30;;;;;;5035225;28;20302;-71
2021/09/23 05:10:39;;;;;;;5.80;3.47;;;11.50;97.20;;;;;;5023866;28;20212;-70
2021/09/23 05:13:05;;;;;;;3.67;2.90;;;11.40;97.40;;;;;;5036184;28;20211;-69
2021/09/23 05:15:31;;;;;;;2.70;2.50;;;11.20;97.60;;;;;;5052775;28;20458;-71
2021/09/23 05:17:57;;;;;;;3.87;3.00;;;11.30;97.60;;;;;;5053719;28;20226;-71
2021/09/23 05:20:23;;;;;;;6.30;3.43;;;11.30;97.60;;;;;;5049013;28;20543;-70
2021/09/23 05:22:49;;;;;;;5.67;3.23;;;11.30;97.60;;;;;;5035214;28;20969;-70
2021/09/23 05:25:15;;;;;;;4.20;3.33;;;11.30;97.60;;;;;;5036553;28;20223;-70
2021/09/23 05:27:40;;;;;;;5.93;3.20;;;11.30;97.60;;;;;;5048627;28;20230;-70
2021/09/23 05:30:09;;;;;;;4.53;2.60;;;11.30;97.60;;;;;;5035879;28;20230;-71
2021/09/23 05:32:35;;;;;;;5.90;3.80;;;11.30;97.60;;;;;;5035605;28;20706;-71
2021/09/23 05:35:02;;;;;;;6.30;3.70;;;11.30;97.60;;;;;;5052871;28;20993;-71
2021/09/23 05:37:27;;;;;;;5.73;3.53;;;11.30;97.60;;;;;;5067451;28;20465;-70
2021/09/23 05:39:53;;;;;;;5.17;3.63;;;11.30;97.60;;;;;;5020608;28;20454;-71
2021/09/23 05:42:19;;;;;;;4.80;3.53;;;11.30;97.60;;;;;;5032148;28;20618;-70
2021/09/23 05:44:44;;;;;;;6.60;4.13;;;11.30;97.60;;;;;;5031123;28;20230;-71
2021/09/23 05:47:10;;;;;;;5.70;4.20;;;11.30;97.60;;;;;;5042226;28;20219;-72
2021/09/23 05:49:37;;;;;;;5.20;4.23;;;11.30;97.60;;;;;;5033729;28;20211;-72
2021/09/23 05:52:05;;;;;;;5.23;3.20;;;11.30;97.70;;;;;;5034274;28;20226;-71
2021/09/23 05:54:30;;;;;;;12.53;6.77;;;11.30;97.70;;;;;;5034117;28;20548;-70
2021/09/23 05:56:56;;;;;;;8.37;6.27;;;11.30;97.70;;;;;;5051188;28;20314;-71
2021/09/23 05:59:24;;;;;;;6.40;4.63;;;11.30;97.70;;;;;;5034798;28;20219;-70
2021/09/23 06:01:50;;;;;;;7.17;4.70;;;11.30;97.80;;;;;;5067224;28;20298;-71
2021/09/23 06:04:16;;;;;;;4.80;4.10;;;11.30;97.80;;;;;;5051221;28;20453;-71
2021/09/23 06:06:42;;;;;;;8.70;5.07;;;11.30;98.10;;;;;;5026474;28;20446;-71
2021/09/23 06:09:07;;;;;;;5.93;4.93;;;11.30;98.00;;;;;;5015389;28;20212;-71
2021/09/23 06:11:35;;;;;;;5.03;3.50;;;11.40;98.00;;;;;;5047091;28;20695;-71
2021/09/23 06:14:01;;;;;;;6.00;4.37;;;11.40;98.10;;;;;;5050602;28;20225;-70
2021/09/23 06:16:26;;;;;;;5.00;3.63;;;11.40;98.30;;;;;;5067887;28;20478;-72
2021/09/23 06:18:52;;;;;;;5.33;4.37;;;11.40;98.30;;;;;;5028140;28;20230;-71
2021/09/23 06:21:18;;;;;;;5.80;4.40;;;11.40;98.20;;;;;;5048881;28;20233;-71
2021/09/23 06:23:43;;;;;;;6.17;4.17;;;11.40;98.30;;;;;;5030258;28;20215;-70
2021/09/23 06:26:09;;;;;;;4.70;3.77;;;11.40;98.40;;;;;;5047722;28;20216;-71
2021/09/23 06:28:35;;;;;;;4.13;3.10;;;11.40;98.40;;;;;;5044311;28;20207;-71
2021/09/23 06:31:02;;;;;;;5.20;3.73;;;11.40;98.60;;;;;;5034306;28;20282;-71
2021/09/23 06:33:28;;;;;;;5.63;2.90;;;11.40;98.50;;;;;;5033297;28;20299;-71
2021/09/23 06:35:54;;;;;;;3.77;3.00;;;11.40;98.50;;;;;;5042851;28;20468;-71
2021/09/23 06:38:20;;;;;;;4.90;3.63;;;11.40;98.50;;;;;;5030227;28;20485;-70
2021/09/23 06:40:46;;;;;;;3.97;3.57;;;11.40;98.60;;;;;;5030633;28;20454;-71
2021/09/23 06:43:12;;;;;;;4.10;3.70;;;11.50;98.80;;;;;;5030375;28;21033;-70
2021/09/23 06:45:38;;;;;;;5.00;3.77;;;11.50;98.80;;;;;;5038077;28;20215;-71
2021/09/23 06:48:04;;;;;;;4.70;3.60;;;11.50;98.80;;;;;;5049326;28;20219;-71
2021/09/23 06:50:30;;;;;;;3.93;3.47;;;11.50;98.90;;;;;;5032302;28;20268;-71
2021/09/23 06:52:55;;;;;;;8.20;4.23;;;11.50;99.20;;;;;;5048045;28;20460;-72
2021/09/23 06:55:21;;;;;;;4.00;3.60;;;11.60;99.20;;;;;;5049740;28;20469;-71
2021/09/23 06:57:47;;;;;;;3.50;3.20;;;11.60;99.30;;;;;;5052276;28;20276;-71
2021/09/23 07:00:31;;;;;;;4.67;3.40;;;11.60;99.30;;;;;;5069496;28;20241;-71
2021/09/23 07:03:15;;;;;;;3.63;3.33;;;11.70;99.90;;;;;;5070206;28;20566;-71
2021/09/23 07:05:59;;;;;;;3.60;3.30;;;11.70;99.80;;;;;;5040032;28;20442;-71
2021/09/23 07:08:25;;;;;;;4.63;3.57;;;11.80;99.80;;;;;;5037837;28;20453;-71
2021/09/23 07:10:50;;;;;;;6.10;3.50;;;11.80;99.90;;;;;;5026216;28;20223;-71
2021/09/23 07:13:16;;;;;;;4.60;3.60;;;11.90;99.90;;;;;;5044738;28;20215;-71
2021/09/23 07:15:42;;;;;;;4.63;3.50;;;11.90;99.90;;;;;;5052376;28;20211;-71
2021/09/23 07:18:08;;;;;;;5.60;2.73;;;12.00;99.90;;;;;;5037911;28;20691;-71
2021/09/23 07:20:34;;;;;;;5.30;3.33;;;12.00;99.90;;;;;;5037267;28;20269;-71
2021/09/23 07:23:00;;;;;;;6.00;3.40;;;12.10;99.90;;;;;;5053608;28;20477;-71
2021/09/23 07:25:26;;;;;;;3.20;2.90;;;12.20;99.90;;;;;;5051800;28;20242;-71
2021/09/23 07:27:54;;;;;;;4.43;3.30;;;12.20;99.90;;;;;;5035644;28;20258;-71
2021/09/23 07:30:20;;;;;;;4.10;3.00;;;12.30;99.90;;;;;;5070769;28;20453;-71
2021/09/23 07:32:46;;;;;;;2.60;2.40;;;12.40;99.90;;;;;;5052886;28;20540;-71
2021/09/23 07:35:12;;;;;;;3.27;2.97;;;12.40;99.90;;;;;;5047676;28;20543;-71
2021/09/23 07:37:39;;;;;;;3.90;3.03;;;12.50;99.90;;;;;;5090797;28;20250;-71
2021/09/23 07:40:07;;;;;;;3.50;3.10;;;12.60;99.90;;;;;;5081290;28;20841;-71
2021/09/23 07:42:33;;;;;;;4.40;2.97;;;12.60;99.90;;;;;;5027927;28;20269;-72
2021/09/23 07:45:00;;;;;;;4.47;3.20;;;12.60;99.90;;;;;;5056551;28;20450;-71
2021/09/23 07:47:25;;;;;;;3.60;3.30;;;12.70;99.90;;;;;;5049773;28;20219;-71
2021/09/23 07:49:51;;;;;;;3.53;2.70;;;12.80;99.90;;;;;;5030207;28;20460;-71
2021/09/23 07:52:17;;;;;;;4.10;3.20;;;12.90;99.90;;;;;;5049438;28;20226;-71
2021/09/23 07:54:43;;;;;;;4.10;3.27;;;12.90;99.90;;;;;;5034521;28;20223;-71
2021/09/23 07:57:09;;;;;;;5.47;3.20;;;13.00;99.90;;;;;;5034344;28;20234;-71
2021/09/23 07:59:35;;;;;;;4.43;3.43;;;13.10;99.90;;;;;;5049874;28;20218;-72
2021/09/23 08:02:00;;;;;;;4.07;3.10;;;13.30;99.90;;;;;;5042180;28;20277;-71
2021/09/23 08:04:27;;;;;;;4.60;3.63;;;13.40;99.90;;;;;;5015038;28;20347;-71
2021/09/23 08:06:54;;;;;;;3.57;3.00;;;13.50;99.90;;;;;;5014874;28;20458;-71
2021/09/23 08:09:19;;;;;;;5.57;3.50;;;13.50;99.90;;;;;;5015323;28;20466;-69
2021/09/23 08:11:46;;;;;;;5.00;4.30;;;13.80;99.90;;;;;;5032017;28;20211;-71
2021/09/23 08:14:22;;;;;;;6.60;4.07;;;14.00;99.90;;;;;;5034991;28;20230;-71
2021/09/23 08:17:13;;;;;;;5.23;3.80;;;14.10;99.90;;;;;;5043922;28;20527;-71
2021/09/23 08:19:57;;;;;;;6.40;4.13;;;14.20;99.90;;;;;;5053177;28;20464;-71
2021/09/23 08:22:34;;;;;;;7.10;5.03;;;14.30;99.90;;;;;;5030661;28;20462;-71
2021/09/23 08:25:00;;;;;;;9.60;4.30;;;14.40;99.90;;;;;;5051171;28;20465;-71
2021/09/23 08:27:26;;;;;;;7.13;3.80;;;14.60;99.90;;;;;;5030889;28;20239;-71
2021/09/23 08:29:51;;;;;;;3.27;3.00;;;14.90;99.90;;;;;;5048856;28;20219;-71
2021/09/23 08:32:19;;;;;;;5.00;4.50;;;15.20;99.90;;;;;;5031043;28;20237;-71
2021/09/23 08:34:48;;;;;;;5.30;4.43;;;15.40;99.90;;;;;;5069479;28;20648;-71
2021/09/23 08:37:14;;;;;;;6.13;4.60;;;15.50;99.90;;;;;;5066360;28;20458;-71
2021/09/23 08:39:40;;;;;;;5.87;4.17;;;15.50;99.90;;;;;;5033670;28;20820;-70
2021/09/23 08:42:06;;;;;;;5.53;3.93;;;15.50;99.90;;;;;;5032074;28;20453;-71
2021/09/23 08:44:32;;;;;;;5.70;3.87;;;15.60;99.90;;;;;;5030107;28;20238;-71
2021/09/23 08:46:58;;;;;;;5.97;4.03;;;15.60;99.90;;;;;;5027761;28;20219;-71
2021/09/23 08:49:24;;;;;;;8.17;4.53;;;15.70;99.90;;;;;;5050241;28;20451;-71
2021/09/23 08:51:50;;;;;;;3.90;3.40;;;15.90;99.90;;;;;;5041765;28;20442;-71
2021/09/23 08:54:17;;;;;;;5.67;3.40;;;16.00;99.90;;;;;;5052374;28;20215;-71
2021/09/23 08:56:44;;;;;;;5.23;3.77;;;16.10;99.90;;;;;;5031383;28;20223;-71
2021/09/23 08:59:10;;;;;;;3.73;3.40;;;16.20;99.90;;;;;;5060525;28;20846;-71
2021/09/23 09:01:49;;;;;;;4.10;3.43;;;16.40;99.90;;;;;;5013325;28;20884;-71
2021/09/23 09:04:52;;;;;;;5.27;3.70;;;16.40;99.90;;;;;;5010959;28;20899;-71
2021/09/23 09:08:16;;;;;;;5.00;3.27;;;16.70;99.90;;;;;;5034181;28;20535;-72
2021/09/23 09:11:13;;;;;;;3.60;3.30;;;16.70;99.90;;;;;;5041193;28;20483;-71
2021/09/23 09:13:43;;;;;;;5.17;3.10;;;17.00;99.90;;;;;;5031967;28;20832;-71
2021/09/23 09:16:15;;;;;;;4.33;3.07;;;17.10;99.90;;;;;;5035621;28;20437;-71
2021/09/23 09:18:43;;;;;;;4.83;3.27;;;17.20;99.90;;;;;;5021717;28;20446;-71
2021/09/23 09:21:12;;;;;;;4.93;3.33;;;17.20;99.90;;;;;;5048046;28;20505;-71
2021/09/23 09:23:48;;;;;;;4.30;3.20;;;17.30;99.90;;;;;;5050345;28;20461;-71
2021/09/23 09:26:29;;;;;;;2.67;2.47;;;17.30;99.90;;;;;;5049117;28;20820;-72
2021/09/23 09:28:57;;;;;;;3.77;3.03;;;17.40;99.90;;;;;;5034633;28;20441;-71
2021/09/23 09:31:25;;;;;;;10.53;3.63;;;17.40;99.90;;;;;;5067516;28;20459;-69
2021/09/23 09:33:55;;;;;;;3.37;3.03;;;17.50;99.90;;;;;;5045106;28;20425;-72
2021/09/23 09:36:35;;;;;;;4.67;2.93;;;17.60;99.90;;;;;;5031488;28;20445;-71
2021/09/23 09:39:06;;;;;;;3.53;3.23;;;17.60;99.90;;;;;;5044060;28;20509;-71
2021/09/23 09:41:35;;;;;;;4.87;3.47;;;17.70;99.90;;;;;;5051271;28;20448;-72
2021/09/23 09:44:08;;;;;;;5.50;3.17;;;17.90;99.90;;;;;;5034037;28;20456;-71
2021/09/23 09:46:42;;;;;;;6.20;3.60;;;18.00;99.90;;;;;;5030174;28;20446;-71
2021/09/23 09:49:10;;;;;;;3.23;2.73;;;18.10;99.90;;;;;;5031463;28;21002;-71
2021/09/23 09:51:48;;;;;;;3.97;3.10;;;18.10;99.90;;;;;;5045787;28;20481;-71
2021/09/23 09:54:19;;;;;;;2.57;2.37;;;18.30;99.90;;;;;;5015011;28;20488;-71
2021/09/23 09:56:58;;;;;;;2.70;2.50;;;18.50;99.90;;;;;;5028129;28;20473;-72
2021/09/23 09:59:24;;;;;;;3.27;3.07;;;18.70;99.90;;;;;;5049940;28;20472;-71
2021/09/23 10:01:56;;;;;;;4.57;2.90;;;18.80;99.90;;;;;;5050457;28;20448;-71
2021/09/23 10:04:23;;;;;;;2.70;2.50;;;18.90;99.90;;;;;;5034738;28;21097;-72
2021/09/23 10:06:55;;;;;;;2.77;2.50;;;19.00;99.90;;;;;;5031574;28;20517;-71
2021/09/23 10:09:21;;;;;;;6.00;3.00;;;19.10;99.90;;;;;;5049160;28;20461;-70
2021/09/23 10:11:48;;;;;;;3.20;2.60;;;19.20;99.90;;;;;;5047325;28;20884;-71
2021/09/23 10:14:18;;;;;;;3.07;2.80;;;19.30;99.90;;;;;;5048866;28;20230;-70
2021/09/23 10:16:46;;;;;;;3.93;2.80;;;19.60;99.90;;;;;;5064736;28;20530;-71
2021/09/23 10:19:12;;;;;;;2.83;2.40;;;19.70;99.90;;;;;;5047736;28;20453;-71
2021/09/23 10:21:38;;;;;;;3.60;2.70;;;20.00;99.90;;;;;;5031105;28;20497;-72
2021/09/23 10:24:08;;;;;;;2.40;2.20;;;20.10;99.90;;;;;;5032936;28;20227;-72
2021/09/23 10:26:38;;;;;;;4.70;2.93;;;20.20;99.90;;;;;;5065418;28;20465;-71
2021/09/23 10:29:07;;;;;;;3.17;2.93;;;20.40;99.90;;;;;;5050228;28;20453;-72
2021/09/23 10:31:36;;;;;;;2.90;2.70;;;20.60;99.90;;;;;;5051451;28;21011;-71
2021/09/23 10:34:04;;;;;;;4.67;3.33;;;20.70;99.40;;;;;;5037298;28;20449;-71
2021/09/23 10:36:32;;;;;;;6.87;2.93;;;20.90;99.20;;;;;;5044341;28;20453;-71
2021/09/23 10:39:00;;;;;;;6.33;2.93;;;21.00;98.90;;;;;;5053261;28;20868;-71
2021/09/23 10:41:32;;;;;;;3.07;2.77;;;21.20;98.70;;;;;;5063252;28;20448;-72
2021/09/23 10:43:59;;;;;;;3.03;2.73;;;21.30;99.00;;;;;;5036232;28;20445;-72
2021/09/23 10:46:26;;;;;;;4.00;3.10;;;21.40;99.00;;;;;;5037328;28;20496;-71
2021/09/23 10:48:54;;;;;;;2.70;2.37;;;21.30;99.20;;;;;;5049091;28;20438;-71
2021/09/23 10:51:21;;;;;;;3.20;2.90;;;21.40;99.30;;;;;;5051633;28;20832;-72
2021/09/23 10:53:57;;;;;;;4.20;3.03;;;21.50;99.10;;;;;;5019326;28;20495;-72
2021/09/23 10:56:26;;;;;;;2.23;1.97;;;21.50;99.10;;;;;;5024889;28;20451;-72
2021/09/23 10:58:55;;;;;;;2.77;2.30;;;21.60;99.10;;;;;;5027813;28;20457;-72
2021/09/23 11:01:29;;;;;;;2.70;2.50;;;21.70;99.20;;;;;;5051822;28;20460;-72
2021/09/23 11:03:57;;;;;;;2.40;2.20;;;21.80;98.50;;;;;;5052683;28;20498;-71
2021/09/23 11:06:37;;;;;;;2.43;2.23;;;21.90;99.00;;;;;;5036484;28;20441;-71
2021/09/23 11:09:20;;;;;;;7.60;2.73;;;21.90;98.60;;;;;;5042238;28;20880;-72
2021/09/23 11:12:16;;;;;;;3.30;3.00;;;22.10;98.60;;;;;;5038139;28;20964;-71
2021/09/23 11:14:47;;;;;;;2.33;2.13;;;22.20;98.80;;;;;;5037492;28;20511;-71
2021/09/23 11:17:17;;;;;;;3.90;2.63;;;22.20;98.60;;;;;;5051726;28;20610;-72
2021/09/23 11:19:45;;;;;;;3.30;2.53;;;22.30;98.40;;;;;;5047207;28;21012;-72
2021/09/23 11:22:13;;;;;;;2.70;2.50;;;22.50;97.00;;;;;;5034848;28;20510;-72
2021/09/23 11:24:41;;;;;;;2.73;2.53;;;22.60;96.50;;;;;;5068801;28;20485;-72
2021/09/23 11:27:08;;;;;;;2.60;2.40;;;22.70;97.20;;;;;;5044685;28;20915;-72
2021/09/23 11:29:42;;;;;;;3.93;2.43;;;22.70;97.20;;;;;;5037872;28;20476;-71
2021/09/23 11:32:11;;;;;;;2.63;2.40;;;22.90;96.60;;;;;;5053678;28;20448;-72
2021/09/23 11:34:39;;;;;;;2.87;2.67;;;23.10;95.70;;;;;;5052991;28;20467;-73
2021/09/23 11:37:09;;;;;;;2.63;2.43;;;23.20;95.60;;;;;;5047018;28;20765;-73
2021/09/23 11:39:48;;;;;;;2.67;2.47;;;23.30;95.60;;;;;;5053907;28;20466;-71
2021/09/23 11:42:19;;;;;;;3.03;2.80;;;23.40;95.50;;;;;;5037559;28;20524;-72
2021/09/23 11:44:46;;;;;;;2.23;2.07;;;23.40;95.10;;;;;;5070005;28;20491;-72
2021/09/23 11:47:16;;;;;;;3.03;2.80;;;23.50;95.20;;;;;;5052724;28;21105;-72
2021/09/23 11:49:47;;;;;;;3.73;3.37;;;23.60;94.70;;;;;;5035770;28;20449;-72
2021/09/23 11:52:13;;;;;;;2.37;2.23;;;23.80;95.30;;;;;;5052996;28;20456;-72
2021/09/23 11:54:39;;;;;;;2.93;2.70;;;23.80;94.80;;;;;;5036598;28;20453;-72
2021/09/23 11:57:06;;;;;;;2.07;1.93;;;24.00;94.40;;;;;;5069759;28;20233;-72
2021/09/23 11:59:36;;;;;;;3.00;2.70;;;24.10;94.10;;;;;;5037011;28;21050;-72
2021/09/23 12:02:04;;;;;;;2.93;2.73;;;24.20;93.80;;;;;;5051962;28;20449;-72
2021/09/23 12:04:32;;;;;;;2.83;2.63;;;24.10;94.30;;;;;;5032642;28;20234;-72
2021/09/23 12:07:06;;;;;;;2.90;2.70;;;24.20;94.40;;;;;;5033285;28;20448;-72
2021/09/23 12:09:33;;;;;;;3.30;3.00;;;24.30;94.20;;;;;;5034572;28;20453;-72
2021/09/23 12:12:02;;;;;;;3.00;2.80;;;24.30;93.50;;;;;;5020342;28;20446;-72
2021/09/23 12:14:29;;;;;;;2.83;2.63;;;24.30;93.70;;;;;;5052344;28;20532;-72
2021/09/23 12:17:02;;;;;;;2.83;2.63;;;24.50;94.00;;;;;;5052188;28;20544;-72
2021/09/23 12:19:31;;;;;;;2.40;2.20;;;24.60;93.20;;;;;;5032519;28;20230;-72
2021/09/23 12:21:58;;;;;;;2.53;2.33;;;24.60;93.10;;;;;;5055783;28;20528;-72
2021/09/23 12:24:35;;;;;;;3.03;2.60;;;24.80;92.50;;;;;;5052925;28;20460;-72
2021/09/23 12:27:03;;;;;;;2.83;2.60;;;24.90;92.60;;;;;;5052548;28;20457;-72
2021/09/23 12:29:30;;;;;;;3.43;2.80;;;24.90;92.90;;;;;;5069147;28;20453;-72
2021/09/23 12:32:07;;;;;;;3.00;2.80;;;25.00;93.00;;;;;;5034526;28;20448;-72
2021/09/23 12:34:45;;;;;;;13.30;4.40;;;25.20;93.40;;;;;;5029715;28;20452;-72
2021/09/23 12:37:12;;;;;;;2.97;2.60;;;25.30;92.00;;;;;;5052832;28;20457;-72
2021/09/23 12:40:01;;;;;;;3.33;3.03;;;25.30;91.70;;;;;;5051596;28;20464;-71
2021/09/23 12:42:32;;;;;;;3.00;2.53;;;25.50;91.30;;;;;;5051311;28;20498;-70
2021/09/23 12:45:05;;;;;;;3.00;2.43;;;25.50;91.30;;;;;;5052501;28;20460;-72
2021/09/23 12:47:44;;;;;;;4.50;2.70;;;25.50;91.30;;;;;;5067265;28;20456;-72
2021/09/23 12:50:12;;;;;;;5.00;2.33;;;25.60;91.40;;;;;;5033920;28;20453;-72
2021/09/23 12:52:41;;;;;;;2.50;2.30;;;25.60;91.50;;;;;;5026810;28;20514;-72